createdAt,value
2017-10-18T00:01:38.966Z,11.95
2017-10-18T00:04:06.424Z,9.70
2017-10-18T00:06:33.927Z,10.10
2017-10-18T00:09:01.378Z,9.60
2017-10-18T00:11:28.834Z,9.93
2017-10-18T00:13:56.316Z,12.53
2017-10-18T00:16:23.773Z,12.07
2017-10-18T00:18:51.291Z,12.33
2017-10-18T00:21:19.536Z,10.90
2017-10-18T00:23:46.993Z,10.20
2017-10-18T00:26:14.452Z,10.60
2017-10-18T00:28:41.934Z,11.93
2017-10-18T00:31:10.189Z,12.00
2017-10-18T00:33:37.663Z,11.70
2017-10-18T00:36:05.109Z,11.90
2017-10-18T00:38:32.601Z,13.60
2017-10-18T00:41:00.841Z,14.33
2017-10-18T00:43:28.300Z,13.97
2017-10-18T00:45:55.761Z,12.70
2017-10-18T00:48:23.241Z,13.50
2017-10-18T00:50:51.494Z,12.90
2017-10-18T00:53:18.962Z,15.67
2017-10-18T00:55:46.991Z,15.40
2017-10-18T00:58:14.477Z,13.27
2017-10-18T01:00:41.933Z,15.30
2017-10-18T01:03:09.393Z,16.00
2017-10-18T01:05:36.881Z,14.80
2017-10-18T01:08:05.110Z,14.30
2017-10-18T01:10:32.610Z,14.37
2017-10-18T01:13:00.858Z,14.20
2017-10-18T01:15:28.308Z,15.50
2017-10-18T01:17:55.801Z,13.10
2017-10-18T01:20:23.254Z,15.53
2017-10-18T01:22:50.713Z,13.53
2017-10-18T01:25:18.193Z,12.37
2017-10-18T01:27:46.417Z,12.60
2017-10-18T01:30:13.900Z,12.03
2017-10-18T01:32:41.352Z,11.40
2017-10-18T01:35:08.838Z,11.13
2017-10-18T01:37:37.080Z,11.70
2017-10-18T01:40:04.561Z,12.00
2017-10-18T01:42:32.815Z,12.40
2017-10-18T01:45:00.257Z,11.83
2017-10-18T01:47:27.707Z,11.20
2017-10-18T01:49:55.181Z,9.50
2017-10-18T01:52:22.637Z,11.27
2017-10-18T01:54:50.111Z,12.17
2017-10-18T01:57:19.002Z,11.57
2017-10-18T01:59:46.486Z,10.93
2017-10-18T02:02:14.718Z,10.43
2017-10-18T02:04:42.173Z,12.40
2017-10-18T02:07:09.654Z,11.73
2017-10-18T02:09:37.126Z,12.23
2017-10-18T02:12:05.385Z,11.37
2017-10-18T02:14:32.841Z,11.03
2017-10-18T02:17:00.305Z,12.23
2017-10-18T02:19:27.787Z,12.50
2017-10-18T02:21:56.002Z,12.43
2017-10-18T02:24:23.477Z,10.93
2017-10-18T02:26:50.961Z,10.93
2017-10-18T02:29:19.626Z,9.35
2017-10-18T02:31:47.123Z,9.87
2017-10-18T02:34:14.598Z,9.20
2017-10-18T02:36:42.058Z,10.93
2017-10-18T02:39:09.543Z,10.90
2017-10-18T02:41:37.021Z,10.20
2017-10-18T02:44:04.474Z,9.67
2017-10-18T02:46:31.959Z,10.00
2017-10-18T02:48:59.435Z,9.40
2017-10-18T02:51:26.892Z,12.20
2017-10-18T02:53:55.141Z,11.00
2017-10-18T02:56:22.606Z,12.03
2017-10-18T02:58:50.075Z,12.17
2017-10-18T03:01:17.559Z,11.17
2017-10-18T03:03:45.018Z,13.03
2017-10-18T03:06:12.493Z,9.17
2017-10-18T03:08:40.006Z,9.87
2017-10-18T03:11:07.551Z,10.20
2017-10-18T03:13:35.039Z,12.53
2017-10-18T03:16:03.283Z,9.53
2017-10-18T03:18:30.757Z,11.23
2017-10-18T03:20:58.242Z,11.70
2017-10-18T03:23:25.728Z,11.00
2017-10-18T03:25:53.229Z,11.30
2017-10-18T03:28:20.711Z,10.20
2017-10-18T03:30:48.962Z,11.60
2017-10-18T03:33:16.442Z,10.73
2017-10-18T03:35:44.685Z,11.43
2017-10-18T03:38:12.201Z,12.33
2017-10-18T03:40:39.659Z,11.70
2017-10-18T03:43:07.150Z,11.37
2017-10-18T03:45:34.613Z,12.30
2017-10-18T03:48:02.348Z,12.30
2017-10-18T03:50:29.858Z,11.67
2017-10-18T03:52:57.349Z,10.00
2017-10-18T03:55:25.566Z,11.30
2017-10-18T03:57:53.026Z,10.63
2017-10-18T04:00:21.070Z,11.50
2017-10-18T04:02:48.840Z,11.13
2017-10-18T04:05:16.314Z,10.97
2017-10-18T04:07:43.794Z,12.13
2017-10-18T04:10:11.417Z,9.87
2017-10-18T04:12:38.876Z,11.50
2017-10-18T04:15:06.334Z,10.27
2017-10-18T04:17:33.801Z,10.20
2017-10-18T04:20:01.244Z,11.53
2017-10-18T04:22:28.711Z,10.63
2017-10-18T04:24:56.196Z,11.73
2017-10-18T04:27:23.649Z,12.20
2017-10-18T04:29:52.085Z,12.37
2017-10-18T04:32:19.547Z,11.67
2017-10-18T04:34:47.033Z,11.20
2017-10-18T04:37:14.501Z,12.70
2017-10-18T04:39:41.961Z,11.80
2017-10-18T04:42:09.441Z,12.07
2017-10-18T04:44:36.899Z,13.10
2017-10-18T04:47:04.372Z,13.03
2017-10-18T04:49:31.854Z,12.40
2017-10-18T04:51:59.314Z,13.03
2017-10-18T04:54:26.802Z,12.63
2017-10-18T04:56:54.285Z,12.13
2017-10-18T04:59:22.782Z,11.85
2017-10-18T05:01:51.928Z,14.73
2017-10-18T05:04:19.413Z,14.17
2017-10-18T05:06:46.870Z,11.60
2017-10-18T05:09:14.369Z,12.90
2017-10-18T05:11:42.605Z,13.07
2017-10-18T05:14:10.073Z,12.40
2017-10-18T05:16:37.570Z,11.87
2017-10-18T05:19:05.234Z,12.20
2017-10-18T05:21:32.970Z,13.53
2017-10-18T05:24:00.780Z,15.47
2017-10-18T05:26:28.482Z,11.87
2017-10-18T05:28:56.982Z,13.10
2017-10-18T05:31:24.504Z,14.60
2017-10-18T05:33:52.931Z,11.90
2017-10-18T05:36:20.838Z,10.13
2017-10-18T05:38:48.293Z,13.80
2017-10-18T05:41:16.589Z,13.10
2017-10-18T05:43:44.317Z,14.00
2017-10-18T05:46:11.897Z,12.73
2017-10-18T05:48:39.533Z,13.40
2017-10-18T05:51:07.775Z,13.60
2017-10-18T05:53:35.269Z,12.87
2017-10-18T05:56:02.721Z,11.60
2017-10-18T05:58:30.977Z,13.43
2017-10-18T06:00:58.457Z,14.33
2017-10-18T06:03:26.709Z,11.97
2017-10-18T06:05:57.143Z,13.03
2017-10-18T06:08:24.593Z,11.43
2017-10-18T06:10:52.077Z,13.27
2017-10-18T06:13:19.534Z,15.90
2017-10-18T06:15:47.024Z,13.80
2017-10-18T06:18:14.487Z,15.30
2017-10-18T06:20:42.001Z,15.47
2017-10-18T06:23:10.265Z,16.37
2017-10-18T06:25:37.718Z,17.23
2017-10-18T06:28:05.173Z,10.47
2017-10-18T06:30:32.655Z,12.10
2017-10-18T06:33:00.865Z,13.77
2017-10-18T06:35:28.345Z,10.00
2017-10-18T06:37:55.805Z,15.33
2017-10-18T06:40:24.702Z,15.85
2017-10-18T06:42:52.157Z,14.30
2017-10-18T06:45:19.654Z,17.00
2017-10-18T06:47:47.872Z,16.07
2017-10-18T06:50:15.418Z,12.03
2017-10-18T06:52:42.891Z,21.83
2017-10-18T06:55:10.369Z,22.70
2017-10-18T06:57:37.846Z,16.37
2017-10-18T07:00:05.310Z,17.17
2017-10-18T07:02:32.786Z,20.30
2017-10-18T07:05:00.254Z,29.50
2017-10-18T07:07:28.501Z,26.70
2017-10-18T07:09:55.968Z,22.70
2017-10-18T07:12:24.380Z,28.60
2017-10-18T07:14:51.844Z,23.27
2017-10-18T07:17:19.310Z,30.40
2017-10-18T07:19:46.808Z,35.00
2017-10-18T07:22:14.290Z,39.10
2017-10-18T07:24:41.779Z,30.60
2017-10-18T07:27:09.238Z,38.60
2017-10-18T07:29:36.711Z,34.53
2017-10-18T07:32:04.160Z,32.87
2017-10-18T07:34:31.644Z,33.37
2017-10-18T07:36:59.109Z,40.33
2017-10-18T07:39:26.614Z,43.73
2017-10-18T07:41:55.022Z,43.17
2017-10-18T07:44:22.493Z,47.87
2017-10-18T07:46:49.972Z,40.77
2017-10-18T07:49:17.469Z,42.37
2017-10-18T07:51:44.945Z,47.43
2017-10-18T07:54:12.417Z,52.43
2017-10-18T07:56:39.885Z,42.70
2017-10-18T07:59:07.374Z,52.17
2017-10-18T08:01:35.603Z,45.70
2017-10-18T08:04:03.073Z,50.87
2017-10-18T08:06:30.550Z,54.43
2017-10-18T08:08:58.018Z,54.07
2017-10-18T08:11:26.393Z,56.40
2017-10-18T08:13:53.861Z,51.03
2017-10-18T08:16:21.322Z,56.00
2017-10-18T08:18:49.635Z,47.43
2017-10-18T08:21:17.127Z,53.77
2017-10-18T08:23:44.594Z,55.10
2017-10-18T08:26:12.094Z,53.77
2017-10-18T08:28:39.551Z,53.27
2017-10-18T08:31:07.018Z,56.10
2017-10-18T08:33:34.501Z,55.40
2017-10-18T08:36:01.981Z,48.63
2017-10-18T08:38:29.471Z,49.90
2017-10-18T08:40:57.707Z,51.50
2017-10-18T08:43:25.193Z,47.93
2017-10-18T08:45:52.662Z,50.97
2017-10-18T08:48:20.911Z,51.93
2017-10-18T08:50:48.374Z,52.37
2017-10-18T08:53:15.862Z,51.47
2017-10-18T08:55:44.145Z,49.73
2017-10-18T08:58:12.374Z,54.23
2017-10-18T09:00:39.838Z,51.40
2017-10-18T09:03:07.323Z,53.63
2017-10-18T09:05:34.813Z,51.27
2017-10-18T09:08:02.301Z,56.33
2017-10-18T09:10:29.777Z,54.20
2017-10-18T09:12:57.247Z,57.30
2017-10-18T09:15:24.733Z,54.87
2017-10-18T09:17:52.973Z,57.30
2017-10-18T09:20:20.450Z,55.20
2017-10-18T09:22:47.934Z,59.57
2017-10-18T09:25:15.394Z,56.33
2017-10-18T09:27:42.874Z,61.40
2017-10-18T09:30:10.359Z,61.87
2017-10-18T09:32:37.818Z,56.87
2017-10-18T09:35:05.293Z,60.30
2017-10-18T09:37:32.753Z,59.17
2017-10-18T09:40:00.254Z,60.93
2017-10-18T09:42:27.729Z,64.03
2017-10-18T09:44:55.185Z,60.20
2017-10-18T09:47:22.678Z,63.47
2017-10-18T09:49:50.141Z,60.10
2017-10-18T09:52:17.599Z,64.27
2017-10-18T09:54:45.086Z,60.57
2017-10-18T09:57:13.338Z,63.07
2017-10-18T09:59:40.793Z,65.70
2017-10-18T10:02:08.283Z,63.57
2017-10-18T10:04:35.738Z,69.07
2017-10-18T10:07:03.234Z,63.47
2017-10-18T10:09:30.749Z,60.30
2017-10-18T10:11:59.003Z,62.83
2017-10-18T10:14:26.485Z,62.27
2017-10-18T10:16:54.732Z,73.60
2017-10-18T10:19:22.193Z,70.17
2017-10-18T10:21:49.682Z,66.17
2017-10-18T10:24:17.932Z,67.33
2017-10-18T10:26:45.413Z,61.17
2017-10-18T10:29:13.657Z,66.20
2017-10-18T10:31:41.173Z,69.13
2017-10-18T10:34:08.649Z,62.93
2017-10-18T10:36:36.154Z,60.80
2017-10-18T10:39:04.394Z,63.07
2017-10-18T10:41:31.890Z,61.33
2017-10-18T10:43:59.352Z,59.50
2017-10-18T10:46:26.813Z,54.77
2017-10-18T10:48:54.327Z,59.07
2017-10-18T10:51:21.797Z,61.67
2017-10-18T10:53:49.261Z,65.90
2017-10-18T10:56:16.770Z,65.40
2017-10-18T10:58:44.249Z,61.10
2017-10-18T11:01:11.710Z,62.03
2017-10-18T11:03:39.197Z,64.40
2017-10-18T11:06:06.653Z,60.27
2017-10-18T11:08:34.115Z,58.60
2017-10-18T11:11:01.608Z,62.20
2017-10-18T11:13:29.072Z,56.90
2017-10-18T11:15:56.525Z,58.57
2017-10-18T11:18:24.002Z,55.83
2017-10-18T11:20:51.486Z,58.97
2017-10-18T11:23:18.946Z,56.13
2017-10-18T11:25:46.418Z,54.30
2017-10-18T11:28:13.873Z,60.70
2017-10-18T11:30:41.369Z,57.63
2017-10-18T11:33:09.618Z,59.33
2017-10-18T11:35:37.103Z,58.00
2017-10-18T11:38:05.354Z,57.63
2017-10-18T11:40:32.816Z,54.30
2017-10-18T11:43:00.280Z,52.70
2017-10-18T11:45:28.550Z,58.30
2017-10-18T11:47:56.015Z,54.40
2017-10-18T11:50:24.238Z,52.60
2017-10-18T11:52:51.701Z,53.73
2017-10-18T11:55:19.225Z,52.90
2017-10-18T11:57:47.474Z,55.87
2017-10-18T12:00:14.966Z,52.87
2017-10-18T12:02:42.480Z,51.30
2017-10-18T12:05:09.958Z,52.27
2017-10-18T12:07:37.471Z,48.80
2017-10-18T12:10:04.950Z,43.57
2017-10-18T12:12:32.434Z,49.20
2017-10-18T12:15:01.070Z,47.50
2017-10-18T12:17:28.525Z,45.77
2017-10-18T12:19:56.034Z,49.33
2017-10-18T12:22:23.490Z,53.43
2017-10-18T12:24:50.945Z,49.40
2017-10-18T12:27:18.434Z,50.50
2017-10-18T12:29:46.691Z,46.37
2017-10-18T12:32:14.942Z,46.40
2017-10-18T12:34:42.409Z,42.13
2017-10-18T12:37:09.861Z,49.50
2017-10-18T12:39:37.347Z,51.73
2017-10-18T12:42:05.578Z,52.27
2017-10-18T12:44:33.062Z,50.10
2017-10-18T12:47:00.869Z,51.13
2017-10-18T12:49:28.341Z,48.33
2017-10-18T12:51:55.825Z,52.77
2017-10-18T12:54:23.283Z,49.17
2017-10-18T12:56:50.762Z,52.00
2017-10-18T12:59:18.275Z,51.03
2017-10-18T13:01:45.745Z,49.60
2017-10-18T13:04:13.238Z,51.10
2017-10-18T13:06:40.697Z,49.67
2017-10-18T13:09:08.155Z,45.83
2017-10-18T13:11:35.648Z,48.87
2017-10-18T13:14:03.105Z,47.87
2017-10-18T13:16:31.522Z,48.80
2017-10-18T13:18:58.978Z,46.93
2017-10-18T13:21:26.466Z,44.63
2017-10-18T13:23:54.064Z,46.83
2017-10-18T13:26:21.532Z,46.80
2017-10-18T13:28:49.014Z,43.07
2017-10-18T13:31:16.542Z,42.67
2017-10-18T13:33:44.019Z,45.90
2017-10-18T13:36:11.489Z,45.40
2017-10-18T13:38:38.974Z,44.40
2017-10-18T13:41:06.434Z,45.57
2017-10-18T13:43:33.882Z,46.33
2017-10-18T13:46:02.808Z,42.20
2017-10-18T13:48:31.030Z,39.33
2017-10-18T13:50:58.520Z,39.90
2017-10-18T13:53:26.782Z,38.80
2017-10-18T13:55:54.236Z,40.10
2017-10-18T13:58:21.734Z,40.80
2017-10-18T14:00:49.966Z,39.47
2017-10-18T14:03:17.444Z,42.70
2017-10-18T14:05:44.941Z,36.60
2017-10-18T14:08:12.448Z,42.27
2017-10-18T14:10:39.914Z,41.70
2017-10-18T14:13:07.393Z,37.83
2017-10-18T14:15:34.882Z,39.53
2017-10-18T14:18:02.948Z,38.30
2017-10-18T14:20:30.683Z,40.43
2017-10-18T14:22:58.281Z,42.83
2017-10-18T14:25:26.050Z,42.17
2017-10-18T14:27:53.626Z,40.03
2017-10-18T14:30:21.122Z,40.20
2017-10-18T14:32:48.584Z,38.70
2017-10-18T14:35:16.201Z,36.40
2017-10-18T14:37:43.701Z,37.37
2017-10-18T14:40:11.166Z,35.40
2017-10-18T14:42:38.646Z,33.07
2017-10-18T14:45:06.882Z,32.87
2017-10-18T14:47:34.369Z,31.73
2017-10-18T14:50:03.535Z,33.10
2017-10-18T14:52:31.135Z,33.07
2017-10-18T14:54:58.854Z,34.40
2017-10-18T14:57:26.696Z,32.97
2017-10-18T14:59:54.204Z,33.57
2017-10-18T15:02:22.779Z,33.30
2017-10-18T15:04:50.453Z,33.47
2017-10-18T15:07:18.765Z,31.07
2017-10-18T15:09:46.284Z,35.03
2017-10-18T15:12:13.810Z,33.40
2017-10-18T15:14:41.655Z,31.43
2017-10-18T15:17:09.227Z,30.90
2017-10-18T15:19:37.039Z,30.90
2017-10-18T15:22:04.701Z,31.67
2017-10-18T15:24:32.473Z,32.43
2017-10-18T15:27:00.009Z,33.23
2017-10-18T15:29:27.680Z,34.43
2017-10-18T15:31:55.216Z,33.03
2017-10-18T15:34:22.705Z,34.90
2017-10-18T15:36:51.293Z,33.83
2017-10-18T15:39:20.039Z,32.27
2017-10-18T15:41:47.764Z,31.50
2017-10-18T15:44:15.389Z,32.53
2017-10-18T15:46:43.807Z,31.83
2017-10-18T15:49:11.553Z,32.03
2017-10-18T15:51:39.219Z,33.77
2017-10-18T15:54:06.700Z,33.87
2017-10-18T15:56:36.598Z,34.43
2017-10-18T15:59:06.373Z,35.50
2017-10-18T16:01:35.680Z,34.03
2017-10-18T16:04:03.186Z,33.13
2017-10-18T16:06:30.694Z,33.33
2017-10-18T16:08:58.301Z,33.50
2017-10-18T16:11:26.595Z,33.40
2017-10-18T16:13:54.252Z,32.70
2017-10-18T16:16:21.914Z,32.53
2017-10-18T16:18:49.576Z,33.30
2017-10-18T16:21:17.237Z,34.63
2017-10-18T16:23:44.907Z,34.20
2017-10-18T16:26:12.412Z,32.60
2017-10-18T16:28:39.868Z,31.97
2017-10-18T16:31:07.328Z,33.43
2017-10-18T16:33:35.977Z,32.70
2017-10-18T16:36:03.859Z,34.73
2017-10-18T16:38:31.552Z,35.33
2017-10-18T16:40:59.976Z,34.73
2017-10-18T16:43:27.500Z,35.07
2017-10-18T16:45:56.385Z,35.33
2017-10-18T16:48:24.006Z,36.50
2017-10-18T16:50:52.212Z,34.70
2017-10-18T16:53:20.072Z,32.70
2017-10-18T16:55:48.333Z,34.87
2017-10-18T16:58:15.999Z,36.07
2017-10-18T17:00:43.635Z,31.83
2017-10-18T17:03:11.187Z,33.40
2017-10-18T17:05:39.536Z,33.20
2017-10-18T17:08:07.150Z,33.10
2017-10-18T17:10:35.656Z,33.20
2017-10-18T17:13:03.333Z,38.20
2017-10-18T17:15:30.863Z,32.83
2017-10-18T17:17:58.684Z,33.77
2017-10-18T17:20:26.139Z,36.13
2017-10-18T17:22:53.649Z,33.17
2017-10-18T17:25:21.112Z,35.23
2017-10-18T17:27:48.566Z,34.67
2017-10-18T17:30:16.150Z,37.10
2017-10-18T17:32:43.605Z,35.33
2017-10-18T17:35:11.076Z,35.60
2017-10-18T17:37:38.558Z,38.20
2017-10-18T17:40:06.025Z,38.57
2017-10-18T17:42:33.525Z,39.97
2017-10-18T17:45:00.985Z,39.93
2017-10-18T17:47:28.446Z,38.27
2017-10-18T17:49:55.966Z,43.43
2017-10-18T17:52:23.439Z,38.30
2017-10-18T17:54:50.894Z,44.20
2017-10-18T17:57:18.391Z,40.00
2017-10-18T17:59:45.852Z,44.57
2017-10-18T18:02:13.333Z,42.37
2017-10-18T18:04:40.822Z,43.63
2017-10-18T18:07:08.300Z,43.67
2017-10-18T18:09:36.274Z,41.00
2017-10-18T18:12:03.751Z,41.03
2017-10-18T18:14:31.212Z,44.70
2017-10-18T18:16:58.701Z,44.03
2017-10-18T18:19:26.153Z,39.60
2017-10-18T18:21:53.633Z,42.80
2017-10-18T18:24:21.114Z,40.63
2017-10-18T18:26:48.584Z,41.90
2017-10-18T18:29:16.118Z,41.07
2017-10-18T18:31:44.328Z,41.80
2017-10-18T18:34:11.817Z,37.77
2017-10-18T18:36:39.269Z,39.70
2017-10-18T18:39:06.727Z,42.63
2017-10-18T18:41:34.196Z,41.90
2017-10-18T18:44:01.654Z,42.57
2017-10-18T18:46:29.123Z,42.10
2017-10-18T18:48:57.376Z,42.87
2017-10-18T18:51:24.871Z,39.93
2017-10-18T18:53:53.089Z,41.00
2017-10-18T18:56:20.561Z,39.90
2017-10-18T18:58:48.073Z,41.30
2017-10-18T19:01:15.544Z,43.43
2017-10-18T19:03:43.115Z,37.67
2017-10-18T19:06:10.713Z,40.17
2017-10-18T19:08:38.223Z,39.80
2017-10-18T19:11:05.674Z,38.37
2017-10-18T19:13:33.124Z,37.33
2017-10-18T19:16:00.806Z,38.70
2017-10-18T19:18:28.270Z,37.80
2017-10-18T19:20:55.725Z,39.87
2017-10-18T19:23:23.526Z,38.10
2017-10-18T19:25:50.973Z,38.67
2017-10-18T19:28:18.443Z,38.27
2017-10-18T19:30:46.073Z,38.70
2017-10-18T19:33:13.574Z,40.13
2017-10-18T19:35:41.507Z,38.00
2017-10-18T19:38:08.977Z,38.90
2017-10-18T19:40:38.164Z,38.90
2017-10-18T19:43:05.645Z,37.23
2017-10-18T19:45:33.128Z,37.50
2017-10-18T19:48:01.360Z,38.50
2017-10-18T19:50:28.905Z,36.07
2017-10-18T19:52:56.381Z,35.90
2017-10-18T19:55:24.002Z,36.77
2017-10-18T19:57:52.492Z,34.17
2017-10-18T20:00:19.968Z,38.23
2017-10-18T20:02:47.465Z,35.30
2017-10-18T20:05:14.913Z,36.00
2017-10-18T20:07:42.545Z,33.60
2017-10-18T20:10:10.008Z,34.70
2017-10-18T20:12:37.934Z,33.60
2017-10-18T20:15:06.182Z,34.53
2017-10-18T20:17:33.633Z,34.73
2017-10-18T20:20:01.091Z,34.57
2017-10-18T20:22:28.581Z,33.83
2017-10-18T20:24:56.805Z,34.37
2017-10-18T20:27:24.261Z,32.03
2017-10-18T20:29:52.493Z,33.77
2017-10-18T20:32:20.733Z,34.47
2017-10-18T20:34:48.219Z,34.10
2017-10-18T20:37:15.726Z,35.80
2017-10-18T20:39:43.189Z,32.77
2017-10-18T20:42:10.645Z,31.90
2017-10-18T20:44:38.396Z,33.10
2017-10-18T20:47:05.891Z,32.87
2017-10-18T20:49:33.385Z,35.67
2017-10-18T20:52:01.615Z,32.33
2017-10-18T20:54:29.134Z,31.70
2017-10-18T20:56:57.361Z,33.17
2017-10-18T20:59:24.819Z,33.33
2017-10-18T21:01:52.306Z,35.53
2017-10-18T21:04:19.765Z,37.10
2017-10-18T21:06:48.014Z,34.00
2017-10-18T21:09:15.521Z,37.13
2017-10-18T21:11:43.753Z,34.67
2017-10-18T21:14:11.233Z,33.37
2017-10-18T21:16:38.826Z,34.73
2017-10-18T21:19:06.378Z,34.20
2017-10-18T21:21:33.870Z,33.97
2017-10-18T21:24:01.335Z,31.70
2017-10-18T21:26:28.802Z,32.20
2017-10-18T21:28:56.277Z,31.87
2017-10-18T21:31:23.781Z,32.17
2017-10-18T21:33:51.295Z,31.23
2017-10-18T21:36:18.759Z,30.07
2017-10-18T21:38:46.232Z,31.50
2017-10-18T21:41:14.485Z,28.10
2017-10-18T21:43:41.970Z,31.37
2017-10-18T21:46:10.211Z,29.83
2017-10-18T21:48:37.713Z,28.00
2017-10-18T21:51:05.970Z,30.30
2017-10-18T21:53:33.450Z,31.37
2017-10-18T21:56:01.677Z,28.90
2017-10-18T21:58:29.177Z,29.60
2017-10-18T22:00:57.400Z,29.23
2017-10-18T22:03:24.898Z,29.90
2017-10-18T22:05:53.129Z,28.77
2017-10-18T22:08:20.596Z,28.00
2017-10-18T22:10:48.101Z,30.87
2017-10-18T22:13:16.329Z,28.53
2017-10-18T22:15:43.796Z,28.90
2017-10-18T22:18:11.286Z,28.47
2017-10-18T22:20:38.781Z,29.03
2017-10-18T22:23:06.247Z,29.50
2017-10-18T22:25:33.752Z,27.97
2017-10-18T22:28:01.209Z,28.23
2017-10-18T22:30:28.719Z,25.80
2017-10-18T22:32:56.313Z,26.00
2017-10-18T22:35:23.768Z,28.23
2017-10-18T22:37:51.240Z,29.40
2017-10-18T22:40:18.731Z,27.83
2017-10-18T22:42:46.953Z,27.13
2017-10-18T22:45:14.439Z,28.13
2017-10-18T22:47:41.910Z,28.70
2017-10-18T22:50:10.181Z,28.33
2017-10-18T22:52:37.658Z,28.20
2017-10-18T22:55:05.145Z,27.07
2017-10-18T22:57:32.654Z,28.00
2017-10-18T23:00:00.905Z,29.97
2017-10-18T23:02:28.369Z,28.63
2017-10-18T23:04:55.845Z,27.80
2017-10-18T23:07:23.331Z,27.60
2017-10-18T23:09:51.627Z,27.00
2017-10-18T23:12:19.073Z,30.30
2017-10-18T23:14:46.529Z,30.50
2017-10-18T23:17:14.014Z,28.27
2017-10-18T23:19:41.469Z,29.70
2017-10-18T23:22:08.921Z,30.33
2017-10-18T23:24:36.478Z,29.37
2017-10-18T23:27:03.931Z,28.90
2017-10-18T23:29:31.411Z,31.37
2017-10-18T23:31:58.899Z,30.97
2017-10-18T23:34:26.383Z,30.87
2017-10-18T23:36:54.669Z,29.53
2017-10-18T23:39:22.163Z,28.70
2017-10-18T23:41:49.645Z,29.60
2017-10-18T23:44:17.200Z,28.23
2017-10-18T23:46:44.665Z,29.13
2017-10-18T23:49:12.146Z,28.00
2017-10-18T23:51:41.309Z,28.00
2017-10-18T23:54:08.782Z,27.50
2017-10-18T23:56:36.242Z,29.20
2017-10-18T23:59:03.734Z,30.03
